createdAt,value
2022-12-19T00:02:18.545Z,-4.64
2022-12-19T00:05:04.825Z,-4.48
2022-12-19T00:07:50.827Z,-4.57
2022-12-19T00:10:36.268Z,-4.44
2022-12-19T00:13:22.071Z,-4.69
2022-12-19T00:16:13.660Z,-4.36
2022-12-19T00:19:01.256Z,-4.32
2022-12-19T00:21:46.928Z,-4.41
2022-12-19T00:24:32.381Z,-4.67
2022-12-19T00:27:17.956Z,-4.43
2022-12-19T00:30:03.785Z,-5.78
2022-12-19T00:32:49.724Z,-6.24
2022-12-19T00:35:35.117Z,-4.56
2022-12-19T00:38:21.015Z,-4.56
2022-12-19T00:41:14.259Z,-4.57
2022-12-19T00:44:09.261Z,-6.07
2022-12-19T00:46:54.777Z,-5.56
2022-12-19T00:49:40.125Z,-6.31
2022-12-19T00:52:27.922Z,-5.09
2022-12-19T00:55:18.791Z,-4.73
2022-12-19T00:58:05.070Z,-4.75
2022-12-19T01:00:50.880Z,-4.67
2022-12-19T01:03:36.613Z,-4.75
2022-12-19T01:06:22.336Z,-4.59
2022-12-19T01:09:08.805Z,-4.96
2022-12-19T01:12:12.682Z,-4.57
2022-12-19T01:15:04.528Z,-4.61
2022-12-19T01:17:51.441Z,-4.57
2022-12-19T01:20:42.539Z,-5.33
2022-12-19T01:23:28.609Z,-5.99
2022-12-19T01:26:14.307Z,-4.99
2022-12-19T01:28:59.703Z,-5.00
2022-12-19T01:31:46.010Z,-4.61
2022-12-19T01:34:31.535Z,-5.99
2022-12-19T01:37:17.405Z,-4.64
2022-12-19T01:40:03.042Z,-4.67
2022-12-19T01:42:49.517Z,-4.65
2022-12-19T01:45:42.174Z,-5.98
2022-12-19T01:48:38.660Z,-5.20
2022-12-19T01:51:28.485Z,-4.64
2022-12-19T01:54:19.786Z,-4.63
2022-12-19T01:57:11.384Z,-4.64
2022-12-19T02:00:00.252Z,-4.64
2022-12-19T02:02:57.061Z,-4.71
2022-12-19T02:05:44.260Z,-4.75
2022-12-19T02:08:32.370Z,-5.00
2022-12-19T02:11:19.815Z,-6.29
2022-12-19T02:14:05.994Z,-4.77
2022-12-19T02:17:02.045Z,-4.85
2022-12-19T02:20:13.601Z,-4.77
2022-12-19T02:23:39.488Z,-4.73
2022-12-19T02:27:17.312Z,-4.74
2022-12-19T02:30:06.012Z,-4.77
2022-12-19T02:32:56.710Z,-4.78
2022-12-19T02:35:55.809Z,-5.14
2022-12-19T02:39:00.563Z,-4.79
2022-12-19T02:41:53.029Z,-4.83
2022-12-19T02:44:46.512Z,-4.85
2022-12-19T02:47:35.202Z,-4.90
2022-12-19T02:50:21.468Z,-5.39
2022-12-19T02:53:09.301Z,-5.58
2022-12-19T02:56:12.885Z,-5.06
2022-12-19T02:59:37.090Z,-5.11
2022-12-19T03:02:32.131Z,-5.20
2022-12-19T03:05:32.337Z,-5.20
2022-12-19T03:08:36.263Z,-5.25
2022-12-19T03:11:23.601Z,-5.39
2022-12-19T03:14:14.292Z,-5.84
2022-12-19T03:17:06.350Z,-5.38
2022-12-19T03:19:51.865Z,-6.04
2022-12-19T03:22:37.583Z,-5.80
2022-12-19T03:25:25.813Z,-5.97
2022-12-19T03:28:16.505Z,-6.81
2022-12-19T03:31:04.296Z,-5.53
2022-12-19T03:33:55.923Z,-6.09
2022-12-19T03:36:47.009Z,-6.99
2022-12-19T03:39:34.513Z,-6.96
2022-12-19T03:42:41.864Z,-5.72
2022-12-19T03:45:41.265Z,-6.21
2022-12-19T03:48:49.976Z,-6.16
2022-12-19T03:51:39.467Z,-5.91
2022-12-19T03:54:27.642Z,-5.92
2022-12-19T03:57:21.214Z,-7.13
2022-12-19T04:00:12.860Z,-6.00
2022-12-19T04:03:00.142Z,-6.06
2022-12-19T04:05:47.986Z,-6.06
2022-12-19T04:08:35.342Z,-7.31
2022-12-19T04:11:21.277Z,-6.13
2022-12-19T04:14:13.798Z,-7.58
2022-12-19T04:17:06.897Z,-6.19
2022-12-19T04:19:58.350Z,-6.62
2022-12-19T04:22:49.993Z,-6.14
2022-12-19T04:25:39.191Z,-7.65
2022-12-19T04:28:38.513Z,-6.35
2022-12-19T04:31:24.673Z,-6.21
2022-12-19T04:34:10.379Z,-6.25
2022-12-19T04:36:55.787Z,-6.53
2022-12-19T04:39:41.168Z,-7.55
2022-12-19T04:42:26.609Z,-7.75
2022-12-19T04:45:12.076Z,-7.67
2022-12-19T04:47:57.584Z,-7.68
2022-12-19T04:50:43.156Z,-6.48
2022-12-19T04:53:29.083Z,-8.19
2022-12-19T04:56:15.037Z,-6.73
2022-12-19T04:59:00.907Z,-6.56
2022-12-19T05:01:47.085Z,-6.78
2022-12-19T05:08:53.042Z,-6.59
2022-12-19T05:11:38.998Z,-6.93
2022-12-19T05:14:24.583Z,-6.59
2022-12-19T05:17:09.918Z,-7.19
2022-12-19T05:19:55.498Z,-6.65
2022-12-19T05:22:40.799Z,-7.85
2022-12-19T05:25:26.616Z,-6.70
2022-12-19T05:28:12.814Z,-6.70
2022-12-19T05:31:04.846Z,-6.75
2022-12-19T05:33:50.771Z,-6.78
2022-12-19T05:36:36.365Z,-6.87
2022-12-19T05:39:21.739Z,-6.95
2022-12-19T05:42:10.966Z,-6.79
2022-12-19T05:44:57.995Z,-6.96
2022-12-19T05:47:46.813Z,-8.43
2022-12-19T05:50:32.854Z,-6.86
2022-12-19T05:53:28.654Z,-6.84
2022-12-19T05:56:18.545Z,-7.01
2022-12-19T05:59:04.383Z,-7.22
2022-12-19T06:01:54.131Z,-7.44
2022-12-19T06:04:48.512Z,-6.88
2022-12-19T06:07:46.006Z,-7.38
2022-12-19T06:10:38.529Z,-7.80
2022-12-19T06:13:25.207Z,-6.99
2022-12-19T06:16:13.935Z,-6.98
2022-12-19T06:18:59.779Z,-7.03
2022-12-19T06:21:48.112Z,-8.29
2022-12-19T06:24:34.461Z,-8.09
2022-12-19T06:27:20.057Z,-7.01
2022-12-19T06:30:06.194Z,-7.22
2022-12-19T06:32:55.909Z,-6.96
2022-12-19T06:35:42.175Z,-7.37
2022-12-19T06:38:28.723Z,-8.18
2022-12-19T06:41:33.331Z,-7.87
2022-12-19T06:44:18.914Z,-8.29
2022-12-19T06:47:04.439Z,-7.30
2022-12-19T06:49:50.348Z,-7.11
2022-12-19T06:52:36.174Z,-8.52
2022-12-19T06:55:21.955Z,-7.45
2022-12-19T06:58:07.585Z,-8.28
2022-12-19T07:00:54.008Z,-7.02
2022-12-19T07:03:41.707Z,-6.94
2022-12-19T07:06:28.263Z,-8.29
2022-12-19T07:09:13.909Z,-6.77
2022-12-19T07:11:59.397Z,-6.98
2022-12-19T07:14:48.950Z,-6.55
2022-12-19T07:17:38.592Z,-6.45
2022-12-19T07:20:24.535Z,-6.36
2022-12-19T07:23:14.779Z,-6.64
2022-12-19T07:26:01.219Z,-6.55
2022-12-19T07:28:46.893Z,-5.98
2022-12-19T07:31:32.695Z,-6.09
2022-12-19T07:34:18.550Z,-7.30
2022-12-19T07:37:04.040Z,-6.52
2022-12-19T07:39:49.379Z,-6.15
2022-12-19T07:42:35.372Z,-5.75
2022-12-19T07:45:21.081Z,-6.26
2022-12-19T07:48:07.887Z,-5.76
2022-12-19T07:50:53.655Z,-5.74
2022-12-19T07:53:39.147Z,-6.93
2022-12-19T07:56:24.489Z,-7.07
2022-12-19T07:59:10.112Z,-5.46
2022-12-19T08:01:55.792Z,-6.27
2022-12-19T08:04:41.838Z,-5.25
2022-12-19T08:07:27.662Z,-5.18
2022-12-19T08:10:15.043Z,-5.12
2022-12-19T08:13:00.915Z,-5.07
2022-12-19T08:15:46.398Z,-5.16
2022-12-19T08:18:32.084Z,-5.30
2022-12-19T08:21:17.727Z,-6.14
2022-12-19T08:24:03.716Z,-5.40
2022-12-19T08:26:49.381Z,-5.19
2022-12-19T08:29:35.587Z,-5.16
2022-12-19T08:32:22.057Z,-5.08
2022-12-19T08:35:08.333Z,-5.14
2022-12-19T08:37:54.613Z,-5.51
2022-12-19T08:40:44.256Z,-5.22
2022-12-19T08:43:33.293Z,-5.18
2022-12-19T08:46:20.689Z,-5.34
2022-12-19T08:49:06.177Z,-5.19
2022-12-19T08:51:51.956Z,-5.96
2022-12-19T08:54:37.554Z,-5.16
2022-12-19T08:57:23.417Z,-6.10
2022-12-19T09:00:09.865Z,-5.52
2022-12-19T09:02:56.685Z,-5.50
2022-12-19T09:06:03.515Z,-5.13
2022-12-19T09:08:48.072Z,-6.59
2022-12-19T09:11:33.730Z,-5.58
2022-12-19T09:14:21.773Z,-4.90
2022-12-19T09:17:07.588Z,-5.20
2022-12-19T09:19:52.797Z,-4.66
2022-12-19T09:22:38.381Z,-4.78
2022-12-19T09:25:23.997Z,-5.64
2022-12-19T09:28:27.624Z,-4.44
2022-12-19T09:31:16.403Z,-5.60
2022-12-19T09:34:02.235Z,-4.41
2022-12-19T09:36:47.781Z,-5.80
2022-12-19T09:39:34.312Z,-4.88
2022-12-19T09:42:41.885Z,-4.43
2022-12-19T09:45:57.546Z,-4.38
2022-12-19T09:48:46.940Z,-4.52
2022-12-19T09:51:44.249Z,-4.34
2022-12-19T09:54:43.772Z,-4.29
2022-12-19T09:57:29.441Z,-4.25
2022-12-19T10:00:21.418Z,-4.25
2022-12-19T10:03:40.998Z,-5.47
2022-12-19T10:07:21.175Z,-4.86
2022-12-19T10:11:38.652Z,-4.32
2022-12-19T10:12:51.125Z,-4.26
2022-12-19T10:15:58.970Z,-4.39
2022-12-19T10:18:48.415Z,-4.36
2022-12-19T10:25:12.630Z,-4.09
2022-12-19T10:28:20.911Z,-5.01
2022-12-19T10:31:28.506Z,-4.37
2022-12-19T10:34:19.789Z,-4.42
2022-12-19T10:37:28.883Z,-5.56
2022-12-19T10:40:29.045Z,-4.09
2022-12-19T10:43:33.603Z,-4.00
2022-12-19T10:46:29.454Z,-4.00
2022-12-19T10:49:19.447Z,-4.01
2022-12-19T10:52:08.064Z,-4.46
2022-12-19T10:54:53.832Z,-4.46
2022-12-19T10:57:39.135Z,-4.28
2022-12-19T11:00:27.771Z,-4.61
2022-12-19T11:03:19.126Z,-4.02
2022-12-19T11:06:06.735Z,-4.05
2022-12-19T11:08:52.296Z,-3.96
2022-12-19T11:16:09.568Z,-5.00
2022-12-19T11:19:18.928Z,-5.20
2022-12-19T11:29:15.045Z,-3.82
2022-12-19T11:29:26.455Z,-3.75
2022-12-19T11:29:34.917Z,-5.07
2022-12-19T11:30:41.736Z,-3.64
2022-12-19T11:34:23.791Z,-3.69
2022-12-19T11:37:22.061Z,-3.47
2022-12-19T11:40:20.760Z,-4.31
2022-12-19T11:46:28.339Z,-3.31
2022-12-19T11:49:30.590Z,-3.23
2022-12-19T11:53:02.876Z,-3.20
2022-12-19T11:55:40.838Z,-3.14
2022-12-19T11:58:31.159Z,-3.39
2022-12-19T12:01:35.474Z,-3.10
2022-12-19T12:04:27.385Z,-3.40
2022-12-19T12:07:28.371Z,-4.62
2022-12-19T12:14:57.158Z,-3.01
2022-12-19T12:25:17.456Z,-3.38
2022-12-19T12:31:00.019Z,-2.85
2022-12-19T12:31:04.120Z,-2.79
2022-12-19T12:31:44.957Z,-2.73
2022-12-19T12:32:04.827Z,-2.99
2022-12-19T12:32:04.979Z,-2.76
2022-12-19T12:35:56.638Z,-2.87
2022-12-19T12:40:31.749Z,-4.26
2022-12-19T12:43:39.690Z,-2.88
2022-12-19T12:46:34.918Z,-2.85
2022-12-19T12:49:43.286Z,-2.86
2022-12-19T12:52:39.272Z,-3.01
2022-12-19T12:55:29.931Z,-2.85
2022-12-19T12:58:44.652Z,-2.84
2022-12-19T13:01:33.599Z,-2.86
2022-12-19T13:04:53.963Z,-2.86
2022-12-19T13:07:51.629Z,-3.35
2022-12-19T13:10:37.343Z,-4.26
2022-12-19T13:13:49.422Z,-2.85
2022-12-19T13:16:44.065Z,-2.84
2022-12-19T13:19:37.923Z,-2.92
2022-12-19T13:22:29.364Z,-2.88
2022-12-19T13:25:27.200Z,-3.15
2022-12-19T13:28:39.630Z,-2.91
2022-12-19T13:31:25.896Z,-2.90
2022-12-19T13:34:18.495Z,-2.93
2022-12-19T13:39:55.160Z,-2.98
2022-12-19T13:40:33.579Z,-3.03
2022-12-19T13:43:42.711Z,-3.06
2022-12-19T13:46:44.663Z,-3.10
2022-12-19T13:49:34.487Z,-3.18
2022-12-19T13:52:23.112Z,-3.31
2022-12-19T13:55:15.876Z,-3.20
2022-12-19T13:58:04.680Z,-3.53
2022-12-19T14:00:53.959Z,-4.55
2022-12-19T14:03:43.759Z,-3.84
2022-12-19T14:06:41.421Z,-3.98
2022-12-19T14:11:32.792Z,-3.43
2022-12-19T14:13:51.502Z,-3.49
2022-12-19T14:16:17.492Z,-3.54
2022-12-19T14:19:03.661Z,-3.55
2022-12-19T14:22:11.160Z,-3.58
2022-12-19T14:25:50.165Z,-4.27
2022-12-19T14:28:24.526Z,-4.26
2022-12-19T14:31:19.330Z,-3.64
2022-12-19T14:34:43.166Z,-3.65
2022-12-19T14:39:25.665Z,-3.81
2022-12-19T14:41:00.169Z,-4.91
2022-12-19T14:43:56.627Z,-3.89
2022-12-19T14:52:25.239Z,-4.98
2022-12-19T14:54:03.654Z,-4.02
2022-12-19T14:54:29.064Z,-4.08
2022-12-19T14:56:57.665Z,-4.27
2022-12-19T14:59:46.199Z,-4.54
2022-12-19T15:02:33.866Z,-4.28
2022-12-19T15:05:21.381Z,-4.75
2022-12-19T15:08:10.634Z,-4.42
2022-12-19T15:11:44.476Z,-4.43
2022-12-19T15:14:56.803Z,-4.52
2022-12-19T15:17:48.684Z,-4.91
2022-12-19T15:20:35.856Z,-4.63
2022-12-19T15:23:22.925Z,-4.63
2022-12-19T15:26:14.489Z,-4.61
2022-12-19T15:29:00.355Z,-5.17
2022-12-19T15:31:46.133Z,-5.86
2022-12-19T15:34:41.879Z,-4.85
2022-12-19T15:37:32.167Z,-6.12
2022-12-19T15:40:18.727Z,-4.78
2022-12-19T15:43:05.076Z,-4.91
2022-12-19T15:45:57.911Z,-4.93
2022-12-19T15:48:48.605Z,-6.54
2022-12-19T15:51:33.971Z,-5.08
2022-12-19T15:54:47.843Z,-6.43
2022-12-19T15:57:36.703Z,-4.91
2022-12-19T16:00:27.682Z,-6.34
2022-12-19T16:03:23.902Z,-4.86
2022-12-19T16:06:14.670Z,-6.08
2022-12-19T16:09:00.371Z,-6.17
2022-12-19T16:11:46.574Z,-5.10
2022-12-19T16:14:31.983Z,-5.14
2022-12-19T16:17:22.836Z,-6.22
2022-12-19T16:20:17.204Z,-5.08
2022-12-19T16:23:02.727Z,-4.88
2022-12-19T16:25:53.666Z,-6.11
2022-12-19T16:28:39.067Z,-6.26
2022-12-19T16:31:26.462Z,-4.77
2022-12-19T16:34:21.636Z,-4.79
2022-12-19T16:37:07.176Z,-5.08
2022-12-19T16:39:52.910Z,-5.04
2022-12-19T16:42:39.470Z,-5.25
2022-12-19T16:45:26.480Z,-4.98
2022-12-19T16:48:19.899Z,-5.05
2022-12-19T16:51:06.471Z,-5.10
2022-12-19T16:53:54.692Z,-5.48
2022-12-19T16:56:52.791Z,-6.43
2022-12-19T16:59:40.369Z,-5.44
2022-12-19T17:02:32.367Z,-5.33
2022-12-19T17:05:29.878Z,-5.36
2022-12-19T17:08:15.427Z,-6.87
2022-12-19T17:11:01.154Z,-5.45
2022-12-19T17:13:50.542Z,-5.46
2022-12-19T17:16:37.326Z,-5.49
2022-12-19T17:19:26.029Z,-6.19
2022-12-19T17:22:13.665Z,-5.87
2022-12-19T17:24:59.743Z,-5.74
2022-12-19T17:27:45.905Z,-5.61
2022-12-19T17:30:31.687Z,-5.59
2022-12-19T17:33:18.619Z,-6.99
2022-12-19T17:36:06.642Z,-6.96
2022-12-19T17:38:52.366Z,-6.03
2022-12-19T17:41:38.002Z,-5.61
2022-12-19T17:44:24.021Z,-5.74
2022-12-19T17:47:19.185Z,-5.51
2022-12-19T17:50:05.743Z,-5.54
2022-12-19T17:52:53.424Z,-7.03
2022-12-19T17:55:41.943Z,-5.56
2022-12-19T17:58:29.843Z,-5.83
2022-12-19T18:01:24.579Z,-5.52
2022-12-19T18:04:15.902Z,-5.61
2022-12-19T18:07:02.744Z,-5.51
2022-12-19T18:09:48.577Z,-5.52
2022-12-19T18:12:34.592Z,-6.00
2022-12-19T18:15:22.297Z,-5.58
2022-12-19T18:18:13.869Z,-6.09
2022-12-19T18:21:02.421Z,-5.51
2022-12-19T18:23:48.855Z,-5.37
2022-12-19T18:26:34.649Z,-5.35
2022-12-19T18:29:19.827Z,-5.25
2022-12-19T18:32:05.526Z,-6.48
2022-12-19T18:34:52.517Z,-5.27
2022-12-19T18:37:42.314Z,-5.71
2022-12-19T18:40:31.548Z,-5.70
2022-12-19T18:43:19.240Z,-5.78
2022-12-19T18:46:05.531Z,-5.78
2022-12-19T18:48:51.713Z,-5.59
2022-12-19T18:51:38.098Z,-5.66
2022-12-19T18:54:23.890Z,-6.08
2022-12-19T18:57:09.636Z,-5.72
2022-12-19T18:59:55.479Z,-5.70
2022-12-19T19:02:47.257Z,-5.83
2022-12-19T19:05:36.117Z,-6.22
2022-12-19T19:08:30.589Z,-5.65
2022-12-19T19:11:35.151Z,-5.86
2022-12-19T19:14:20.612Z,-5.86
2022-12-19T19:17:07.026Z,-6.39
2022-12-19T19:19:52.608Z,-5.86
2022-12-19T19:22:38.303Z,-6.53
2022-12-19T19:25:24.793Z,-6.15
2022-12-19T19:28:10.766Z,-7.45
2022-12-19T19:30:57.987Z,-5.99
2022-12-19T19:33:50.965Z,-5.97
2022-12-19T19:36:41.074Z,-6.55
2022-12-19T19:39:32.910Z,-5.84
2022-12-19T19:42:19.101Z,-5.91
2022-12-19T19:45:06.107Z,-5.70
2022-12-19T19:47:51.999Z,-6.06
2022-12-19T19:50:38.119Z,-5.65
2022-12-19T19:53:23.679Z,-6.13
2022-12-19T19:56:09.602Z,-5.71
2022-12-19T19:58:55.429Z,-5.58
2022-12-19T20:01:41.288Z,-6.94
2022-12-19T20:04:28.198Z,-5.99
2022-12-19T20:07:14.492Z,-5.69
2022-12-19T20:10:00.564Z,-6.91
2022-12-19T20:12:46.827Z,-6.31
2022-12-19T20:15:33.378Z,-6.13
2022-12-19T20:18:19.004Z,-6.08
2022-12-19T20:21:12.286Z,-6.03
2022-12-19T20:23:58.972Z,-6.83
2022-12-19T20:26:44.577Z,-6.82
2022-12-19T20:29:30.549Z,-5.79
2022-12-19T20:32:16.332Z,-6.15
2022-12-19T20:35:02.031Z,-5.89
2022-12-19T20:37:47.613Z,-6.01
2022-12-19T20:40:33.383Z,-6.86
2022-12-19T20:43:21.400Z,-5.97
2022-12-19T20:46:15.013Z,-5.98
2022-12-19T20:49:02.429Z,-6.01
2022-12-19T20:51:49.799Z,-6.09
2022-12-19T20:54:36.733Z,-6.22
2022-12-19T20:57:27.955Z,-7.78
2022-12-19T21:00:15.223Z,-6.28
2022-12-19T21:03:27.200Z,-6.32
2022-12-19T21:06:08.329Z,-7.84
2022-12-19T21:08:56.169Z,-6.57
2022-12-19T21:11:41.909Z,-7.77
2022-12-19T21:14:27.457Z,-6.89
2022-12-19T21:17:13.173Z,-6.49
2022-12-19T21:19:58.794Z,-7.94
2022-12-19T21:22:44.627Z,-7.48
2022-12-19T21:25:46.425Z,-7.21
2022-12-19T21:28:33.330Z,-7.77
2022-12-19T21:31:27.594Z,-6.79
2022-12-19T21:34:13.281Z,-6.99
2022-12-19T21:36:59.537Z,-6.54
2022-12-19T21:39:44.919Z,-7.07
2022-12-19T21:42:30.406Z,-7.52
2022-12-19T21:45:16.375Z,-6.86
2022-12-19T21:48:01.931Z,-6.91
2022-12-19T21:50:55.611Z,-6.52
2022-12-19T21:53:41.311Z,-6.63
2022-12-19T21:56:34.243Z,-7.28
2022-12-19T21:59:19.509Z,-6.51
2022-12-19T22:02:05.131Z,-6.53
2022-12-19T22:04:51.178Z,-6.52
2022-12-19T22:07:36.477Z,-7.85
2022-12-19T22:10:22.574Z,-6.91
2022-12-19T22:13:07.895Z,-7.24
2022-12-19T22:15:53.498Z,-6.50
2022-12-19T22:18:40.908Z,-8.07
2022-12-19T22:21:27.071Z,-6.45
2022-12-19T22:24:14.269Z,-6.42
2022-12-19T22:27:00.192Z,-6.39
2022-12-19T22:29:45.636Z,-6.46
2022-12-19T22:32:31.567Z,-6.35
2022-12-19T22:35:17.227Z,-6.83
2022-12-19T22:38:02.714Z,-6.89
2022-12-19T22:40:48.263Z,-6.34
2022-12-19T22:43:35.671Z,-6.26
2022-12-19T22:46:26.376Z,-6.23
2022-12-19T22:49:14.191Z,-7.76
2022-12-19T22:52:00.264Z,-6.50
2022-12-19T22:54:45.737Z,-6.34
2022-12-19T22:57:31.249Z,-6.57
2022-12-19T23:00:17.370Z,-6.69
2022-12-19T23:03:02.962Z,-7.77
2022-12-19T23:05:52.115Z,-6.74
2022-12-19T23:08:38.680Z,-6.19
2022-12-19T23:11:29.487Z,-6.13
2022-12-19T23:14:17.075Z,-6.10
2022-12-19T23:17:02.639Z,-6.06
2022-12-19T23:19:47.929Z,-7.47
2022-12-19T23:22:33.323Z,-6.00
2022-12-19T23:25:19.120Z,-6.86
2022-12-19T23:28:05.192Z,-6.67
2022-12-19T23:30:50.876Z,-6.06
2022-12-19T23:33:36.519Z,-6.42
2022-12-19T23:36:45.066Z,-6.00
2022-12-19T23:39:27.567Z,-5.97
2022-12-19T23:42:13.057Z,-6.91
2022-12-19T23:44:58.496Z,-6.80
2022-12-19T23:47:46.675Z,-5.43
2022-12-19T23:50:32.211Z,-5.78
2022-12-19T23:53:17.757Z,-5.38
2022-12-19T23:56:08.171Z,-6.48
2022-12-19T23:58:54.783Z,-6.49
